Time;durP1;ratioP1;P1;durP2;ratioP2;P2;SDS_P1;SDS_P2;PMS_P1;PMS_P2;Temp;Humidity;BMP_temperature;BMP_pressure;BME280_temperature;BME280_humidity;BME280_pressure;Samples;Min_cycle;Max_cycle;Signal;HPM_P1;HPM_P2
2023/10/30 00:02:13;;;;;;;;;;;11.70;72.70;;;10.64;66.91;96514.44;6112744;23;19920;-90
2023/10/30 00:04:44;;;;;;;;;;;11.70;73.00;;;10.63;66.57;96515.53;6137644;23;19920;-90
2023/10/30 00:07:19;;;;;;;;;;;11.70;72.60;;;10.63;65.88;96518.25;6113546;23;19921;-90
2023/10/30 00:09:54;;;;;;;;;;;11.70;72.30;;;10.62;66.60;96513.88;6091565;23;19931;-90
2023/10/30 00:12:28;;;;;;;;;;;11.70;72.70;;;10.62;66.67;96505.66;6112826;23;19920;-90
2023/10/30 00:15:06;;;;;;;;;;;11.70;73.00;;;10.62;66.74;96511.13;6113082;23;19921;-90
2023/10/30 00:17:36;;;;;;;;;;;11.70;72.90;;;10.60;66.09;96505.09;6134699;23;19932;-90
2023/10/30 00:20:13;;;;;;;;;;;11.60;72.50;;;10.59;66.61;96508.91;6090050;23;20367;-90
2023/10/30 00:22:58;;;;;;;;;;;11.60;73.60;;;10.59;66.46;96503.44;6137765;23;19921;-90
2023/10/30 00:25:38;;;;;;;;;;;11.60;72.70;;;10.57;66.41;96498.25;6112927;23;19928;-90
2023/10/30 00:28:18;;;;;;;;;;;11.60;72.60;;;10.56;66.57;96498.50;6112714;23;20264;-90
2023/10/30 00:31:13;;;;;;;;;;;11.60;72.90;;;10.57;67.44;96505.63;6116886;23;19924;-90
2023/10/30 00:33:49;;;;;;;;;;;11.60;73.30;;;10.58;66.38;96510.00;6113589;23;19927;-90
2023/10/30 00:36:28;;;;;;;;;;;11.60;72.70;;;10.57;67.06;96508.34;6090216;23;19924;-90
2023/10/30 00:39:00;;;;;;;;;;;11.60;73.40;;;10.56;66.86;96502.06;6113397;23;19921;-90
2023/10/30 00:41:31;;;;;;;;;;;11.60;73.20;;;10.56;66.64;96506.69;6112637;23;19927;-90
2023/10/30 00:44:03;;;;;;;;;;;11.60;72.60;;;10.53;65.76;96499.84;6112452;23;19928;-90
2023/10/30 00:46:43;;;;;;;;;;;11.60;71.90;;;10.55;66.49;96505.03;6112568;23;19932;-90
2023/10/30 00:49:12;;;;;;;;;;;11.60;72.50;;;10.52;66.51;96506.41;6112128;23;19921;-90
2023/10/30 00:51:54;;;;;;;;;;;11.60;72.50;;;10.51;66.44;96499.28;6136396;23;19921;-90
2023/10/30 00:54:26;;;;;;;;;;;11.60;72.80;;;10.52;66.57;96500.13;6113764;23;19932;-90
2023/10/30 00:57:06;;;;;;;;;;;11.60;72.30;;;10.50;66.64;96497.63;6137732;23;19920;-90
2023/10/30 00:59:42;;;;;;;;;;;11.50;72.60;;;10.50;66.78;96496.81;6113317;23;20340;-90
2023/10/30 01:02:35;;;;;;;;;;;11.60;72.80;;;10.48;66.89;96496.25;6112864;23;19927;-90
2023/10/30 01:05:11;;;;;;;;;;;11.50;73.00;;;10.49;66.39;96508.84;6103403;23;19924;-90
2023/10/30 01:07:41;;;;;;;;;;;11.50;72.50;;;10.48;66.35;96507.19;6112084;23;19920;-90
2023/10/30 01:10:36;;;;;;;;;;;11.50;72.30;;;10.50;67.03;96515.97;6138939;23;20359;-90
2023/10/30 01:13:21;;;;;;;;;;;11.50;73.00;;;10.47;66.17;96509.09;6085022;23;19928;-90
2023/10/30 01:16:02;;;;;;;;;;;11.50;72.10;;;10.47;66.80;96519.22;6113684;23;19928;-90
2023/10/30 01:18:44;;;;;;;;;;;11.50;73.00;;;10.46;66.27;96520.31;6114251;23;19920;-90
2023/10/30 01:21:53;;;;;;;;;;;;;;;;;;;;;
2023/10/30 01:24:45;;;;;;;;;;;11.50;72.60;;;10.43;66.73;96527.16;6136822;23;19924;-90
2023/10/30 01:27:16;;;;;;;;;;;11.50;72.90;;;10.43;66.16;96519.75;6112250;23;19920;-90
2023/10/30 01:29:56;;;;;;;;;;;;;;;;;;;;;
2023/10/30 01:35:27;;;;;;;;;;;11.50;72.20;;;10.38;66.63;96519.72;6135012;23;19920;-90
2023/10/30 01:38:25;;;;;;;;;;;11.50;72.90;;;10.38;65.51;96514.25;6135686;23;19925;-90
2023/10/30 01:41:07;;;;;;;;;;;11.50;72.00;;;10.37;66.29;96509.84;6136148;23;20340;-90
2023/10/30 01:44:26;;;;;;;;;;;11.40;72.50;;;10.36;66.17;96508.19;6116385;23;19927;-90
2023/10/30 01:47:15;;;;;;;;;;;11.40;72.10;;;10.37;66.67;96517.19;6107046;23;19928;-90
2023/10/30 01:50:12;;;;;;;;;;;;;;;;;;;;;
2023/10/30 01:52:52;;;;;;;;;;;11.40;71.90;;;10.33;65.88;96522.38;6113171;23;19927;-90
2023/10/30 01:55:23;;;;;;;;;;;11.40;72.10;;;10.33;66.18;96525.13;6136348;23;20233;-90
2023/10/30 01:58:07;;;;;;;;;;;11.40;72.50;;;10.31;66.34;96521.81;6112467;23;19920;-91
2023/10/30 02:00:38;;;;;;;;;;;11.40;72.20;;;10.33;65.89;96525.13;6112340;23;19924;-90
2023/10/30 02:03:26;;;;;;;;;;;11.40;72.10;;;10.31;65.61;96527.28;6137225;23;19921;-90
2023/10/30 02:06:26;;;;;;;;;;;11.40;71.60;;;10.32;65.58;96533.59;6135647;23;19921;-90
2023/10/30 02:09:26;;;;;;;;;;;11.40;71.70;;;10.28;65.67;96522.31;6091107;23;19924;-90
2023/10/30 02:12:05;;;;;;;;;;;11.30;71.70;;;10.26;65.93;96528.06;6113774;23;19927;-90
2023/10/30 02:14:56;;;;;;;;;;;11.30;71.90;;;10.27;65.67;96531.63;6092004;23;19920;-91
2023/10/30 02:17:43;;;;;;;;;;;11.30;71.90;;;10.26;65.92;96540.94;6136946;23;19969;-91
2023/10/30 02:20:36;;;;;;;;;;;;;;;;;;;;;
2023/10/30 02:23:23;;;;;;;;;;;11.30;71.90;;;10.26;65.14;96540.94;6114897;23;19921;-90
2023/10/30 02:29:38;;;;;;;;;;;11.30;71.50;;;10.21;65.79;96528.00;6071975;23;19927;-91
2023/10/30 02:32:45;;;;;;;;;;;;;;;;;;;;;
2023/10/30 02:35:40;;;;;;;;;;;;;;;;;;;;;
2023/10/30 02:39:05;;;;;;;;;;;11.30;72.30;;;10.19;66.44;96527.47;6114145;23;19927;-91
2023/10/30 02:42:26;;;;;;;;;;;11.30;73.10;;;10.19;66.13;96524.72;6015331;23;19929;-91
2023/10/30 03:03:48;;;;;;;;;;;;;;;;;;;;;
2023/10/30 03:23:03;;;;;;;;;;;;;;;;;;;;;
2023/10/30 03:26:55;;;;;;;;;;;;;;;;;;;;;
2023/10/30 03:38:21;;;;;;;;;;;;;;;;;;;;;
2023/10/30 03:41:58;;;;;;;;;;;11.10;71.60;;;10.01;66.18;96553.25;5958905;24;19929;-90
2023/10/30 07:05:36;;;;;;;;;;;11.50;70.70;;;10.73;64.24;96556.66;6089710;23;19922;-92
2023/10/30 07:09:03;;;;;;;;;;;;;;;;;;;;;
2023/10/30 07:12:12;;;;;;;;;;;11.60;70.70;;;10.68;64.36;96545.66;6025926;23;19921;-92
2023/10/30 07:36:32;;;;;;;;;;;11.50;72.80;;;10.66;66.16;96555.22;5891517;23;19922;-92
2023/10/30 07:39:35;;;;;;;;;;;11.50;72.90;;;10.74;65.58;96558.31;6014327;23;20019;-92
2023/10/30 07:42:37;;;;;;;;;;;;;;;;;;;;;
2023/10/30 07:45:12;;;;;;;;;;;11.70;73.30;;;10.96;66.28;96545.59;6014879;23;19924;-92
2023/10/30 07:48:28;;;;;;;;;;;;;;;;;;;;;
2023/10/30 07:51:34;;;;;;;;;;;11.90;73.10;;;11.16;65.26;96539.41;5994166;23;19922;-92
2023/10/30 07:54:11;;;;;;;;;;;11.90;72.60;;;11.25;65.58;96540.53;5993225;23;19922;-92
2023/10/30 07:56:54;;;;;;;;;;;12.00;72.60;;;11.33;65.41;96537.28;6023529;23;19929;-92
2023/10/30 07:59:56;;;;;;;;;;;12.20;72.70;;;11.41;65.14;96544.16;6026662;23;19922;-92
2023/10/30 08:02:26;;;;;;;;;;;12.20;72.00;;;11.47;65.13;96534.03;6050347;23;19926;-92
2023/10/30 08:04:55;;;;;;;;;;;12.30;72.10;;;11.52;64.87;96531.34;6027049;23;19929;-92
2023/10/30 08:07:30;;;;;;;;;;;12.30;71.90;;;11.59;64.85;96534.63;6003274;23;19929;-92
2023/10/30 08:10:00;;;;;;;;;;;12.40;71.80;;;11.62;65.03;96528.63;6074913;23;20341;-92
2023/10/30 08:12:30;;;;;;;;;;;12.40;71.70;;;11.67;64.81;96536.03;6023801;23;19922;-92
2023/10/30 08:15:03;;;;;;;;;;;12.50;71.60;;;11.71;64.85;96537.16;6003262;23;19932;-92
2023/10/30 08:17:33;;;;;;;;;;;12.50;71.40;;;11.74;64.81;96546.75;6003195;23;19922;-92
2023/10/30 08:20:03;;;;;;;;;;;12.60;71.40;;;11.77;64.72;96538.81;6003079;23;19933;-92
2023/10/30 08:22:40;;;;;;;;;;;12.60;71.30;;;11.81;64.87;96537.19;6051491;23;19937;-92
2023/10/30 08:25:10;;;;;;;;;;;12.60;71.30;;;11.86;64.36;96533.63;6050723;23;19928;-92
2023/10/30 08:27:44;;;;;;;;;;;12.70;71.20;;;11.89;64.37;96532.25;6002892;23;19922;-92
2023/10/30 08:30:16;;;;;;;;;;;12.70;71.20;;;11.93;64.23;96536.09;6003919;23;19921;-92
2023/10/30 08:32:46;;;;;;;;;;;12.80;71.10;;;11.95;64.26;96526.50;6049083;23;19929;-92
2023/10/30 08:35:16;;;;;;;;;;;12.80;71.10;;;11.96;64.57;96525.41;5980009;23;19929;-92
2023/10/30 08:37:51;;;;;;;;;;;12.80;70.80;;;11.95;64.21;96514.72;6003953;23;20252;-92
2023/10/30 08:40:27;;;;;;;;;;;12.80;70.70;;;11.93;64.16;96512.25;6073932;23;19929;-92
2023/10/30 08:42:59;;;;;;;;;;;12.80;70.50;;;11.95;63.97;96515.53;6050621;23;19922;-92
2023/10/30 08:45:28;;;;;;;;;;;12.80;70.50;;;11.96;64.53;96510.88;6003137;23;19921;-92
2023/10/30 08:47:58;;;;;;;;;;;12.80;70.70;;;11.97;64.43;96501.56;6073457;23;19944;-92
2023/10/30 08:50:29;;;;;;;;;;;12.90;70.80;;;12.00;64.23;96520.25;6025828;23;19922;-92
2023/10/30 08:53:00;;;;;;;;;;;12.90;70.60;;;12.00;64.19;96509.28;6073354;23;19922;-92
2023/10/30 08:55:30;;;;;;;;;;;12.90;70.50;;;12.03;64.39;96507.91;6074439;23;19929;-91
2023/10/30 08:58:00;;;;;;;;;;;12.90;70.50;;;12.04;64.13;96512.28;6025924;23;19921;-92
2023/10/30 09:00:33;;;;;;;;;;;12.90;70.60;;;12.05;64.19;96502.97;6026116;23;20377;-92
2023/10/30 09:03:02;;;;;;;;;;;13.00;70.50;;;12.07;64.18;96509.00;6025819;23;19921;-91
2023/10/30 09:05:31;;;;;;;;;;;13.00;70.40;;;12.07;64.09;96506.28;6026594;23;19921;-91
2023/10/30 09:08:04;;;;;;;;;;;13.00;70.40;;;12.08;64.16;96505.16;6026350;23;19921;-92
2023/10/30 09:10:34;;;;;;;;;;;13.00;70.40;;;12.08;64.14;96503.25;6003050;23;19921;-92
2023/10/30 09:13:04;;;;;;;;;;;13.00;70.50;;;12.10;64.19;96511.19;6048892;23;19922;-91
2023/10/30 09:15:34;;;;;;;;;;;13.00;70.40;;;12.11;64.04;96507.34;6026953;23;19926;-91
2023/10/30 09:18:04;;;;;;;;;;;13.00;70.30;;;12.13;64.36;96513.41;6025013;23;19929;-91
2023/10/30 09:20:32;;;;;;;;;;;13.10;70.50;;;12.12;64.25;96500.75;6026775;23;19933;-92
2023/10/30 09:23:07;;;;;;;;;;;13.10;70.50;;;12.13;64.15;96500.47;6003299;23;19921;-91
2023/10/30 09:25:37;;;;;;;;;;;13.10;70.40;;;12.14;64.08;96495.84;6003532;23;19946;-92
2023/10/30 09:28:07;;;;;;;;;;;13.10;70.40;;;12.14;64.11;96490.34;6003246;23;19922;-91
2023/10/30 09:30:40;;;;;;;;;;;13.10;70.40;;;12.13;64.21;96488.69;6003784;23;19928;-91
2023/10/30 09:33:11;;;;;;;;;;;13.10;70.50;;;12.15;64.23;96489.25;6026016;23;19929;-92
2023/10/30 09:35:42;;;;;;;;;;;13.10;70.50;;;12.13;64.29;96477.72;6026650;23;19922;-91
2023/10/30 09:38:13;;;;;;;;;;;13.10;70.40;;;12.17;64.54;96484.31;6050253;23;19922;-92
2023/10/30 09:40:44;;;;;;;;;;;13.10;70.50;;;12.16;64.13;96477.19;6002822;23;19925;-91
2023/10/30 09:43:13;;;;;;;;;;;13.10;70.50;;;12.18;64.33;96466.75;6026052;23;19926;-91
2023/10/30 09:45:42;;;;;;;;;;;13.10;70.40;;;12.20;64.18;96459.03;6026428;23;19921;-91
2023/10/30 09:48:11;;;;;;;;;;;13.10;70.30;;;12.21;64.20;96468.13;6002574;23;19922;-91
2023/10/30 09:50:41;;;;;;;;;;;13.20;70.20;;;12.21;63.96;96451.66;6026380;23;20265;-91
2023/10/30 09:53:10;;;;;;;;;;;13.20;70.20;;;12.19;63.89;96453.84;6026135;23;19929;-91
2023/10/30 09:55:41;;;;;;;;;;;13.20;70.10;;;12.15;64.18;96453.56;6001645;23;20341;-91
2023/10/30 09:58:13;;;;;;;;;;;13.10;70.00;;;12.12;64.03;96459.59;6002856;23;19926;-91
2023/10/30 10:00:42;;;;;;;;;;;13.10;70.10;;;12.11;64.21;96446.97;6002691;23;19922;-91
2023/10/30 10:03:09;;;;;;;;;;;13.10;70.30;;;12.07;64.30;96443.97;6014898;23;19921;-91
2023/10/30 10:05:39;;;;;;;;;;;13.00;70.20;;;12.06;64.15;96438.75;6079756;23;19922;-91
2023/10/30 10:08:10;;;;;;;;;;;13.00;70.40;;;12.05;64.08;96440.66;6054760;23;20257;-91
2023/10/30 10:11:00;;;;;;;;;;;13.00;70.40;;;12.02;64.40;96443.94;5971389;23;20293;-91
2023/10/30 10:13:32;;;;;;;;;;;13.00;70.30;;;12.01;64.50;96439.56;6105354;23;19921;-91
2023/10/30 10:16:01;;;;;;;;;;;13.00;70.40;;;12.00;64.28;96443.44;6079784;23;19921;-91
2023/10/30 10:18:31;;;;;;;;;;;13.00;70.50;;;11.98;64.56;96437.38;6078936;23;19922;-91
2023/10/30 10:21:03;;;;;;;;;;;13.00;70.50;;;11.96;64.21;96429.38;6054783;23;19921;-91
2023/10/30 10:23:34;;;;;;;;;;;12.90;70.60;;;11.97;64.39;96424.72;6079928;23;20367;-91
2023/10/30 10:26:15;;;;;;;;;;;12.90;70.60;;;11.95;64.82;96427.72;6078495;23;19933;-91
2023/10/30 10:28:44;;;;;;;;;;;12.90;70.60;;;11.95;64.86;96416.75;6101749;23;19921;-91
2023/10/30 10:31:14;;;;;;;;;;;12.90;70.80;;;11.94;64.58;96415.09;6102750;23;19933;-91
2023/10/30 10:33:46;;;;;;;;;;;12.90;70.80;;;11.93;64.80;96402.50;6078973;23;19933;-91
2023/10/30 10:36:15;;;;;;;;;;;12.90;70.80;;;11.93;64.95;96405.25;6078026;23;19928;-91
2023/10/30 10:38:57;;;;;;;;;;;12.90;70.80;;;11.93;64.89;96408.00;6031366;23;19922;-91
2023/10/30 10:41:28;;;;;;;;;;;12.90;70.80;;;11.95;64.96;96405.78;6054971;23;19922;-91
2023/10/30 10:43:57;;;;;;;;;;;12.90;70.80;;;11.95;64.86;96394.81;6054372;23;19928;-91
2023/10/30 10:46:27;;;;;;;;;;;12.90;70.80;;;11.94;64.75;96398.63;6078579;23;20337;-91
2023/10/30 10:48:57;;;;;;;;;;;12.90;70.80;;;11.94;64.72;96404.13;6078810;23;19921;-91
2023/10/30 10:51:29;;;;;;;;;;;12.90;70.80;;;11.95;64.80;96404.97;6078424;23;19921;-91
2023/10/30 10:53:57;;;;;;;;;;;12.90;71.00;;;11.94;64.92;96406.06;6031439;23;19921;-91
2023/10/30 10:56:28;;;;;;;;;;;12.90;71.00;;;11.94;64.96;96406.88;6065719;23;19921;-91
2023/10/30 10:59:00;;;;;;;;;;;12.90;70.90;;;11.95;64.88;96402.22;6068216;23;19921;-91
2023/10/30 11:01:30;;;;;;;;;;;12.90;71.00;;;11.93;64.72;96399.78;6045442;23;19921;-91
2023/10/30 11:03:58;;;;;;;;;;;12.90;71.00;;;11.91;65.03;96393.72;6114076;23;19927;-90
2023/10/30 11:06:34;;;;;;;;;;;12.90;71.00;;;11.91;65.19;96396.47;6090212;23;19921;-90
2023/10/30 11:09:05;;;;;;;;;;;12.90;71.10;;;11.91;65.00;96398.38;6072064;23;19930;-90
2023/10/30 11:11:37;;;;;;;;;;;12.90;71.10;;;11.88;64.83;96394.28;6067167;23;19921;-90
2023/10/30 11:14:12;;;;;;;;;;;12.90;71.10;;;11.87;65.02;96392.63;6072370;23;19927;-90
2023/10/30 11:16:46;;;;;;;;;;;12.90;71.20;;;11.85;65.26;96383.84;6109931;23;19927;-91
2023/10/30 11:19:14;;;;;;;;;;;12.80;71.20;;;11.85;65.10;96383.03;6032156;23;19922;-91
2023/10/30 11:21:43;;;;;;;;;;;12.80;71.30;;;11.81;65.41;96388.25;6080211;23;19932;-90
2023/10/30 11:24:12;;;;;;;;;;;12.80;71.30;;;11.81;65.13;96377.28;6032717;23;19929;-90
2023/10/30 11:26:43;;;;;;;;;;;12.80;71.30;;;11.82;65.34;96376.16;6079303;23;19922;-90
2023/10/30 11:29:13;;;;;;;;;;;12.80;71.30;;;11.79;65.58;96372.03;6032535;23;19928;-90
2023/10/30 11:31:52;;;;;;;;;;;12.80;71.40;;;11.77;65.64;96367.94;6102481;23;19921;-90
2023/10/30 11:34:25;;;;;;;;;;;12.70;71.50;;;11.77;65.67;96370.69;6079508;23;20337;-90
2023/10/30 11:36:54;;;;;;;;;;;12.70;71.50;;;11.74;65.44;96372.06;6079023;23;20245;-90
2023/10/30 11:39:23;;;;;;;;;;;12.70;71.60;;;11.72;65.57;96368.78;6080957;23;19921;-91
2023/10/30 11:41:54;;;;;;;;;;;12.70;71.70;;;11.72;65.60;96365.19;6056085;23;19925;-91
2023/10/30 11:44:22;;;;;;;;;;;12.70;71.60;;;11.70;65.61;96360.00;6079401;23;19925;-90
2023/10/30 11:46:54;;;;;;;;;;;12.70;71.70;;;11.70;65.53;96364.63;6054429;23;19922;-90
2023/10/30 11:49:22;;;;;;;;;;;12.70;71.70;;;11.69;65.55;96352.00;6079389;23;19937;-91
2023/10/30 11:51:54;;;;;;;;;;;12.70;71.70;;;11.68;65.38;96351.22;6079537;23;19921;-90
2023/10/30 11:54:31;;;;;;;;;;;12.70;71.80;;;11.65;65.78;96349.84;6055315;23;20265;-90
2023/10/30 11:57:01;;;;;;;;;;;12.60;71.70;;;11.64;65.70;96350.94;6103047;23;19921;-90
2023/10/30 11:59:30;;;;;;;;;;;12.60;71.80;;;11.64;65.99;96350.09;6078508;23;19928;-90
2023/10/30 12:01:59;;;;;;;;;;;12.60;71.90;;;11.63;65.62;96342.97;6031893;23;19921;-90
2023/10/30 12:04:28;;;;;;;;;;;12.60;71.90;;;11.63;65.84;96348.44;6079313;23;19928;-90
2023/10/30 12:06:56;;;;;;;;;;;12.60;71.90;;;11.62;66.26;96342.16;6055204;23;19921;-90
2023/10/30 12:09:26;;;;;;;;;;;12.60;72.00;;;11.62;65.85;96333.94;6055682;23;19922;-90
2023/10/30 12:11:56;;;;;;;;;;;12.60;72.00;;;11.60;65.57;96343.53;6103729;23;19928;-90
2023/10/30 12:14:27;;;;;;;;;;;12.60;72.10;;;11.61;66.10;96336.97;6078495;23;19925;-90
2023/10/30 12:16:55;;;;;;;;;;;12.60;72.10;;;11.59;65.68;96342.69;6078733;23;19928;-90
2023/10/30 12:19:24;;;;;;;;;;;12.60;72.10;;;11.58;66.16;96324.59;6032085;23;19932;-90
2023/10/30 12:21:52;;;;;;;;;;;12.60;72.10;;;11.58;66.06;96330.06;6055639;23;20360;-90
2023/10/30 12:24:21;;;;;;;;;;;12.60;72.20;;;11.57;65.72;96333.91;6055540;23;20364;-90
2023/10/30 12:26:50;;;;;;;;;;;12.60;72.30;;;11.57;66.09;96320.22;6031743;23;19975;-90
2023/10/30 12:29:22;;;;;;;;;;;12.50;72.30;;;11.57;65.71;96317.47;6079176;23;19922;-90
2023/10/30 12:32:06;;;;;;;;;;;12.50;72.30;;;11.55;65.96;96308.72;6031834;23;19921;-90
2023/10/30 12:34:36;;;;;;;;;;;12.50;72.40;;;11.56;66.29;96309.53;6103470;23;19921;-90
2023/10/30 12:37:18;;;;;;;;;;;12.50;72.40;;;11.56;66.38;96315.81;6054846;23;19928;-90
2023/10/30 12:40:03;;;;;;;;;;;12.50;72.50;;;11.56;66.30;96307.59;6103299;23;19929;-90
2023/10/30 12:42:34;;;;;;;;;;;12.50;72.50;;;11.55;66.17;96308.72;6103367;23;20341;-90
2023/10/30 12:45:09;;;;;;;;;;;12.50;72.50;;;11.55;66.57;96308.72;6031989;23;19922;-90
2023/10/30 12:47:40;;;;;;;;;;;12.50;72.60;;;11.55;66.26;96308.72;6054922;23;19927;-90
2023/10/30 12:50:09;;;;;;;;;;;12.50;72.60;;;11.56;66.50;96298.56;6102974;23;20384;-90
2023/10/30 12:52:39;;;;;;;;;;;12.50;72.60;;;11.56;66.41;96310.34;6079030;23;19922;-90
2023/10/30 12:55:08;;;;;;;;;;;12.50;72.80;;;11.56;66.33;96309.53;6032697;23;19928;-90
2023/10/30 12:57:39;;;;;;;;;;;12.50;72.70;;;11.55;66.31;96308.72;6080012;23;19921;-90
2023/10/30 13:00:09;;;;;;;;;;;12.50;72.80;;;11.56;66.70;96315.81;6103702;23;19929;-90
2023/10/30 13:02:37;;;;;;;;;;;12.50;72.90;;;11.57;66.36;96311.97;6078244;23;19921;-90
2023/10/30 13:05:09;;;;;;;;;;;12.50;72.80;;;11.56;66.02;96313.06;6078837;23;19928;-90
2023/10/30 13:07:40;;;;;;;;;;;12.50;72.80;;;11.56;66.61;96304.84;6078608;23;19921;-90
2023/10/30 13:10:09;;;;;;;;;;;12.50;72.80;;;11.56;66.47;96304.84;6055747;23;20359;-90
2023/10/30 13:12:39;;;;;;;;;;;12.50;72.80;;;11.55;66.27;96303.22;6079055;23;19925;-90
2023/10/30 13:15:09;;;;;;;;;;;12.50;72.80;;;11.55;66.54;96308.72;6079225;23;19921;-90
2023/10/30 13:17:40;;;;;;;;;;;12.50;72.90;;;11.56;66.77;96304.84;6054347;23;19921;-90
2023/10/30 13:20:14;;;;;;;;;;;12.50;72.90;;;11.54;66.70;96296.09;6055606;23;19928;-90
2023/10/30 13:22:43;;;;;;;;;;;12.50;73.00;;;11.54;66.61;96298.00;6078802;23;19921;-90
2023/10/30 13:25:11;;;;;;;;;;;12.50;73.10;;;11.55;66.77;96285.94;6054764;23;19921;-90
2023/10/30 13:27:41;;;;;;;;;;;12.50;73.10;;;11.54;66.69;96296.09;6078436;23;19944;-90
2023/10/30 13:30:11;;;;;;;;;;;12.50;73.10;;;11.55;66.44;96296.91;6078827;23;19922;-90
2023/10/30 13:32:40;;;;;;;;;;;12.50;73.10;;;11.54;66.97;96289.78;6078769;23;19922;-90
2023/10/30 13:35:11;;;;;;;;;;;12.50;73.10;;;11.54;66.60;96290.63;6054957;23;19929;-90
2023/10/30 13:37:39;;;;;;;;;;;12.50;73.10;;;11.54;66.78;96296.09;6078351;23;20513;-90
2023/10/30 13:40:08;;;;;;;;;;;12.50;73.10;;;11.55;66.49;96285.94;6078894;23;19921;-90
2023/10/30 13:42:38;;;;;;;;;;;12.50;73.00;;;11.55;66.68;96292.25;6078014;23;19928;-90
2023/10/30 13:45:07;;;;;;;;;;;12.50;73.00;;;11.55;66.53;96286.78;6030595;23;19921;-90
2023/10/30 13:47:36;;;;;;;;;;;12.50;73.00;;;11.51;66.45;96283.75;6103125;23;19921;-90
2023/10/30 13:50:04;;;;;;;;;;;12.50;72.90;;;11.53;66.45;96283.50;6031708;23;19933;-90
2023/10/30 13:52:35;;;;;;;;;;;12.50;73.00;;;11.51;66.75;96271.97;6078568;23;19922;-90
2023/10/30 13:55:04;;;;;;;;;;;12.50;73.00;;;11.50;66.78;96273.06;6054925;23;19936;-90
2023/10/30 13:57:33;;;;;;;;;;;12.50;73.10;;;11.49;66.59;96272.22;6077807;23;19929;-90
2023/10/30 14:00:05;;;;;;;;;;;12.50;73.10;;;11.49;66.91;96271.41;6054820;23;19929;-89
2023/10/30 14:02:34;;;;;;;;;;;12.50;73.20;;;11.48;66.96;96269.78;6055439;23;19937;-90
2023/10/30 14:05:03;;;;;;;;;;;12.50;73.20;;;11.47;66.68;96268.97;6054928;23;20234;-90
2023/10/30 14:07:35;;;;;;;;;;;12.40;73.20;;;11.47;66.88;96262.63;6054769;23;19928;-90
2023/10/30 14:10:03;;;;;;;;;;;12.40;73.20;;;11.46;66.76;96264.56;6078657;23;19928;-90
2023/10/30 14:12:32;;;;;;;;;;;12.40;73.30;;;11.45;67.08;96249.22;6054943;23;19975;-90
2023/10/30 14:15:01;;;;;;;;;;;12.40;73.30;;;11.44;67.31;96253.06;6102632;23;19922;-90
2023/10/30 14:17:29;;;;;;;;;;;12.40;73.40;;;11.43;67.13;96251.41;6030765;23;20364;-90
2023/10/30 14:19:58;;;;;;;;;;;12.40;73.50;;;11.42;67.03;96258.00;6102718;23;19928;-90
2023/10/30 14:22:27;;;;;;;;;;;12.40;73.50;;;11.43;67.18;96256.06;6102380;23;19921;-90
2023/10/30 14:24:57;;;;;;;;;;;12.40;73.50;;;11.44;67.06;96254.97;6054858;23;19925;-90
2023/10/30 14:27:25;;;;;;;;;;;12.40;73.50;;;11.42;67.17;96251.69;6054362;23;19925;-90
2023/10/30 14:29:54;;;;;;;;;;;12.40;73.60;;;11.42;67.16;96255.25;6031239;23;19929;-90
2023/10/30 14:32:23;;;;;;;;;;;12.40;73.70;;;11.41;67.18;96255.53;6054740;23;19921;-89
2023/10/30 14:34:52;;;;;;;;;;;12.40;73.60;;;11.41;67.27;96248.13;6078794;23;19921;-90
2023/10/30 14:37:20;;;;;;;;;;;12.40;73.60;;;11.41;67.16;96247.31;6102518;23;19922;-89
2023/10/30 14:39:48;;;;;;;;;;;12.40;73.70;;;11.41;67.39;96255.53;6078591;23;19921;-90
2023/10/30 14:42:19;;;;;;;;;;;12.40;73.80;;;11.39;67.20;96249.50;6079628;23;19922;-90
2023/10/30 14:44:47;;;;;;;;;;;12.40;73.80;;;11.39;67.57;96255.78;6102594;23;19921;-89
2023/10/30 14:47:16;;;;;;;;;;;12.40;73.80;;;11.39;67.63;96253.03;6078487;23;19932;-90
2023/10/30 14:49:45;;;;;;;;;;;12.40;73.90;;;11.38;67.52;96254.16;6031242;23;19921;-90
2023/10/30 14:52:13;;;;;;;;;;;12.30;74.00;;;11.37;67.30;96249.75;6031459;23;19944;-89
2023/10/30 14:54:42;;;;;;;;;;;12.30;74.00;;;11.38;67.41;96253.34;6054611;23;19921;-89
2023/10/30 14:57:10;;;;;;;;;;;12.30;74.00;;;11.36;67.38;96248.09;6054056;23;19921;-89
2023/10/30 14:59:41;;;;;;;;;;;12.30;74.00;;;11.35;67.71;96246.50;6078227;23;19936;-89
2023/10/30 15:02:10;;;;;;;;;;;12.30;74.00;;;11.35;67.30;96247.31;6030942;23;19971;-89
2023/10/30 15:04:39;;;;;;;;;;;12.30;74.80;;;11.35;67.79;96254.72;6102640;23;19921;-89
2023/10/30 15:07:07;;;;;;;;;;;12.30;74.00;;;11.34;67.49;96253.88;6054393;23;19922;-89
2023/10/30 15:09:36;;;;;;;;;;;12.30;74.10;;;11.33;67.52;96252.22;6031495;23;19925;-90
2023/10/30 15:12:06;;;;;;;;;;;12.30;74.10;;;11.33;67.60;96256.91;6102407;23;19937;-89
2023/10/30 15:14:34;;;;;;;;;;;12.30;74.10;;;11.35;67.75;96260.19;6078070;23;19944;-89
2023/10/30 15:17:04;;;;;;;;;;;12.30;74.10;;;11.33;67.44;96257.72;6054137;23;19921;-89
2023/10/30 15:19:33;;;;;;;;;;;12.30;74.10;;;11.32;67.89;96256.06;6102260;23;19937;-89
2023/10/30 15:22:01;;;;;;;;;;;12.30;74.10;;;11.33;67.71;96256.91;6077950;23;19928;-89
2023/10/30 15:24:30;;;;;;;;;;;12.30;74.20;;;11.33;67.57;96259.63;6077527;23;19922;-89
2023/10/30 15:26:58;;;;;;;;;;;12.30;74.20;;;11.31;67.85;96259.91;6076637;23;20337;-89
2023/10/30 15:29:28;;;;;;;;;;;12.30;74.20;;;11.30;67.55;96254.69;6101771;23;19921;-89
2023/10/30 15:31:56;;;;;;;;;;;12.30;74.20;;;11.30;67.53;96262.94;6101753;23;20265;-90
2023/10/30 15:34:27;;;;;;;;;;;12.30;74.20;;;11.31;67.68;96253.59;6077734;23;19925;-89
2023/10/30 15:36:56;;;;;;;;;;;12.30;74.20;;;11.29;67.72;96251.16;6053209;23;20115;-90
2023/10/30 15:39:24;;;;;;;;;;;12.30;74.30;;;11.28;67.42;96249.50;6078102;23;19948;-89
2023/10/30 15:41:55;;;;;;;;;;;12.30;74.20;;;11.29;67.20;96256.63;6102050;23;19921;-89
2023/10/30 15:44:24;;;;;;;;;;;12.30;73.70;;;11.27;67.34;96247.84;6053618;23;19929;-89
2023/10/30 15:46:54;;;;;;;;;;;12.20;73.80;;;11.29;67.41;96256.63;6077501;23;19928;-90
2023/10/30 15:49:22;;;;;;;;;;;12.20;74.00;;;11.27;67.34;96250.59;6102176;23;19921;-89
2023/10/30 15:51:52;;;;;;;;;;;12.20;73.80;;;11.28;67.23;96260.47;6101930;23;19921;-89
2023/10/30 15:54:21;;;;;;;;;;;12.20;73.40;;;11.28;66.92;96263.22;6077770;23;19928;-89
2023/10/30 15:56:49;;;;;;;;;;;12.20;73.10;;;11.28;66.58;96265.94;6077568;23;19928;-89
2023/10/30 15:59:18;;;;;;;;;;;12.20;72.90;;;11.26;66.58;96264.56;6077024;23;20249;-89
2023/10/30 16:01:46;;;;;;;;;;;12.20;72.80;;;11.25;66.32;96266.50;6100474;23;19922;-90
2023/10/30 16:04:15;;;;;;;;;;;12.20;72.70;;;11.24;66.46;96258.53;6053711;23;19921;-89
2023/10/30 16:06:44;;;;;;;;;;;12.20;73.00;;;11.21;66.75;96265.38;6077406;23;19928;-89
2023/10/30 16:09:14;;;;;;;;;;;12.20;73.30;;;11.18;66.58;96263.19;6103211;23;19922;-89
2023/10/30 16:11:43;;;;;;;;;;;12.10;73.40;;;11.18;66.74;96274.13;6055333;23;19928;-89
2023/10/30 16:14:15;;;;;;;;;;;12.10;73.50;;;11.16;66.81;96270.88;6032419;23;19921;-88
2023/10/30 16:16:44;;;;;;;;;;;12.10;73.50;;;11.18;66.78;96271.41;6078739;23;19937;-89
2023/10/30 16:19:13;;;;;;;;;;;12.10;73.60;;;11.15;66.86;96269.22;6055209;23;20254;-89
2023/10/30 16:21:41;;;;;;;;;;;12.10;73.50;;;11.16;66.83;96273.63;6079509;23;20355;-88
2023/10/30 16:24:10;;;;;;;;;;;12.10;73.40;;;11.15;66.86;96281.00;6079220;23;19921;-89
2023/10/30 16:26:41;;;;;;;;;;;12.10;73.60;;;11.13;67.13;96268.66;6102911;23;19932;-89
2023/10/30 16:29:10;;;;;;;;;;;12.10;73.50;;;11.13;66.84;96274.16;6079068;23;19944;-89
2023/10/30 16:31:39;;;;;;;;;;;12.10;73.20;;;11.12;66.71;96267.03;6055106;23;19928;-89
2023/10/30 16:34:07;;;;;;;;;;;12.10;73.40;;;11.10;66.78;96263.72;6103571;23;20490;-89
2023/10/30 16:36:37;;;;;;;;;;;12.10;73.50;;;11.11;66.92;96279.06;6055102;23;19921;-88
2023/10/30 16:39:05;;;;;;;;;;;12.10;73.60;;;11.09;66.77;96273.88;6103688;23;20217;-89
2023/10/30 16:41:34;;;;;;;;;;;12.10;73.60;;;11.08;66.99;96277.72;6031648;23;19922;-89
2023/10/30 16:44:04;;;;;;;;;;;12.10;73.50;;;11.07;66.75;96265.09;6103619;23;20280;-89